Time;durP1;ratioP1;P1;durP2;ratioP2;P2;SDS_P1;SDS_P2;PMS_P1;PMS_P2;Temp;Humidity;BMP_temperature;BMP_pressure;BME280_temperature;BME280_humidity;BME280_pressure;Samples;Min_cycle;Max_cycle;Signal;HPM_P1;HPM_P2
2023/04/01 00:00:35;;;;;;;27.40;9.30;;;;;;;13.44;69.11;97075.05;68301;1282;1015663;-62
2023/04/01 00:03:57;;;;;;;28.50;10.30;;;;;;;13.50;68.20;97072.46;68300;1282;1016204;-62
2023/04/01 00:07:01;;;;;;;25.70;9.70;;;;;;;13.58;67.68;97072.77;68294;1282;1016043;-62
2023/04/01 00:10:03;;;;;;;26.20;9.50;;;;;;;13.52;67.41;97073.00;68321;1282;1015636;-62
2023/04/01 00:13:06;;;;;;;26.90;9.90;;;;;;;13.44;67.70;97071.70;68321;1282;1015298;-62
2023/04/01 00:16:09;;;;;;;25.30;9.90;;;;;;;13.23;68.43;97072.46;68317;1282;1016121;-62
2023/04/01 00:19:11;;;;;;;25.40;10.00;;;;;;;13.14;69.00;97076.31;68302;1282;1016035;-62
2023/04/01 00:22:14;;;;;;;27.40;9.50;;;;;;;13.07;69.29;97076.89;68309;1282;1015987;-62
2023/04/01 00:25:16;;;;;;;25.10;8.70;;;;;;;13.02;69.59;97073.58;68307;1282;1016090;-62
2023/04/01 00:28:19;;;;;;;26.90;9.70;;;;;;;12.95;69.74;97069.84;68298;1282;1015203;-62
2023/04/01 00:31:21;;;;;;;25.20;9.30;;;;;;;12.86;69.66;97069.30;68306;1282;1015760;-62
2023/04/01 00:34:24;;;;;;;27.30;8.60;;;;;;;12.80;69.58;97063.07;68312;1282;1016198;-62
2023/04/01 00:37:26;;;;;;;;;;;;;;;12.72;69.67;97059.64;68314;1282;1015527;-63
2023/04/01 00:40:28;;;;;;;28.90;9.50;;;;;;;12.57;69.87;97059.63;68313;1282;1015577;-62
2023/04/01 00:43:31;;;;;;;24.50;7.60;;;;;;;12.55;69.86;97064.46;68311;1282;1016149;-62
2023/04/01 00:46:35;;;;;;;26.00;8.10;;;;;;;12.49;70.01;97059.58;68309;1282;1016397;-62
2023/04/01 00:49:37;;;;;;;27.10;8.20;;;;;;;12.39;69.95;97051.74;68304;1282;1015507;-62
2023/04/01 00:52:40;;;;;;;26.70;8.90;;;;;;;12.47;69.31;97045.06;68306;1282;1015809;-62
2023/04/01 00:55:43;;;;;;;24.90;8.70;;;;;;;12.49;69.08;97044.88;68308;1282;1015875;-62
2023/04/01 00:58:45;;;;;;;25.20;9.00;;;;;;;12.48;68.44;97044.38;68312;1282;1016138;-62
2023/04/01 01:01:49;;;;;;;24.30;7.80;;;;;;;12.36;68.48;97041.02;68309;1282;1015473;-62
2023/04/01 01:04:51;;;;;;;24.50;8.60;;;;;;;12.34;68.29;97039.30;68301;1282;1015597;-62
2023/04/01 01:07:54;;;;;;;26.40;8.40;;;;;;;12.31;68.24;97044.14;68300;1282;1016021;-62
2023/04/01 01:10:56;;;;;;;26.40;9.10;;;;;;;12.15;68.88;97040.67;68311;1282;1015318;-62
2023/04/01 01:13:58;;;;;;;26.50;8.60;;;;;;;11.94;69.74;97036.17;68323;1282;1015483;-62
2023/04/01 01:17:01;;;;;;;23.30;8.60;;;;;;;11.95;69.24;97034.31;68295;1282;1016756;-62
2023/04/01 01:20:06;;;;;;;25.50;8.70;;;;;;;11.85;69.49;97036.19;65734;1261;6369818;-62
2023/04/01 01:23:08;;;;;;;30.50;9.20;;;;;;;11.89;69.41;97033.00;68302;1282;1015410;-62
2023/04/01 01:26:11;;;;;;;30.80;10.90;;;;;;;11.78;69.91;97031.78;68311;1282;1015460;-62
2023/04/01 01:29:13;;;;;;;26.90;10.10;;;;;;;11.70;70.59;97034.56;68306;1282;1015518;-62
2023/04/01 01:32:16;;;;;;;29.00;10.60;;;;;;;11.63;70.41;97033.84;68308;1282;1015708;-62
2023/04/01 01:35:26;;;;;;;28.90;9.70;;;;;;;11.66;70.46;97028.49;68288;1282;1016343;-63
2023/04/01 01:38:29;;;;;;;27.60;9.70;;;;;;;11.75;70.03;97032.92;68301;1282;1015997;-63
2023/04/01 01:41:31;;;;;;;26.10;9.10;;;;;;;11.74;69.65;97032.59;68315;1282;1015681;-62
2023/04/01 01:44:34;;;;;;;27.30;10.00;;;;;;;11.86;69.20;97035.90;68300;1282;1015642;-62
2023/04/01 01:47:36;;;;;;;26.20;9.40;;;;;;;11.84;69.13;97038.70;68300;1282;1015541;-62
2023/04/01 01:50:38;;;;;;;26.30;9.20;;;;;;;11.76;68.91;97036.81;68301;1282;1015004;-62
2023/04/01 01:53:41;;;;;;;25.90;9.50;;;;;;;11.71;69.26;97034.31;68312;1282;1016084;-62
2023/04/01 01:56:43;;;;;;;25.10;9.50;;;;;;;11.70;68.98;97033.38;68314;1282;1016068;-62
2023/04/01 01:59:45;;;;;;;28.50;9.90;;;;;;;11.64;69.63;97041.51;68300;1282;1015289;-62
2023/04/01 02:02:48;;;;;;;27.30;9.70;;;;;;;11.70;69.85;97044.27;68286;1282;1016222;-62
2023/04/01 02:05:50;;;;;;;26.30;9.40;;;;;;;11.72;70.05;97045.29;68289;1282;1015975;-62
2023/04/01 02:08:52;;;;;;;29.90;9.50;;;;;;;11.74;70.70;97044.49;68321;1282;1015446;-63
2023/04/01 02:11:55;;;;;;;25.80;9.60;;;;;;;11.80;71.29;97041.31;68296;1282;1015319;-62
2023/04/01 02:14:57;;;;;;;25.50;9.80;;;;;;;11.93;70.76;97037.89;68297;1282;1016113;-62
2023/04/01 02:18:00;;;;;;;27.10;9.40;;;;;;;11.89;71.46;97044.52;68302;1282;1014709;-62
2023/04/01 02:21:02;;;;;;;27.20;8.90;;;;;;;11.93;71.23;97049.64;68301;1282;1015616;-62
2023/04/01 02:24:05;;;;;;;27.10;9.40;;;;;;;12.10;70.74;97050.31;68304;1282;1015541;-62
2023/04/01 02:27:07;;;;;;;22.90;8.60;;;;;;;12.12;71.01;97055.86;68296;1282;1015432;-62
2023/04/01 02:30:09;;;;;;;23.90;8.10;;;;;;;12.25;70.74;97059.71;68298;1282;1015631;-63
2023/04/01 02:33:12;;;;;;;25.40;9.10;;;;;;;12.25;70.91;97060.99;68301;1282;1015532;-62
2023/04/01 02:36:14;;;;;;;24.60;8.40;;;;;;;12.29;70.78;97061.11;68288;1282;1015938;-62
2023/04/01 02:39:16;;;;;;;23.20;8.10;;;;;;;12.33;70.78;97064.96;68321;1282;1015393;-62
2023/04/01 02:42:19;;;;;;;24.60;8.90;;;;;;;12.46;70.31;97064.02;68293;1282;1015727;-62
2023/04/01 02:45:21;;;;;;;24.90;8.50;;;;;;;12.34;71.07;97060.48;68287;1282;1015115;-62
2023/04/01 02:48:24;;;;;;;26.80;8.70;;;;;;;12.41;71.02;97065.27;68311;1282;1016075;-63
2023/04/01 02:51:27;;;;;;;25.30;8.80;;;;;;;12.56;70.32;97067.83;68300;1282;1014353;-62
2023/04/01 02:54:29;;;;;;;23.90;8.60;;;;;;;12.62;70.11;97067.27;68306;1282;1016214;-62
2023/04/01 02:57:31;;;;;;;22.30;7.80;;;;;;;12.57;70.43;97070.84;68314;1282;1016131;-62
2023/04/01 03:00:34;;;;;;;25.40;8.20;;;;;;;12.59;70.53;97067.92;68297;1282;1015658;-62
2023/04/01 03:03:36;;;;;;;21.70;7.70;;;;;;;12.56;70.85;97069.88;68303;1282;1015282;-62
2023/04/01 03:06:39;;;;;;;24.70;8.00;;;;;;;12.39;71.77;97074.70;68297;1282;1016050;-62
2023/04/01 03:09:41;;;;;;;22.80;7.30;;;;;;;12.53;71.41;97077.78;68289;1282;1016259;-62
2023/04/01 03:12:43;;;;;;;21.90;7.70;;;;;;;12.50;71.75;97078.88;68315;1282;1016132;-62
2023/04/01 03:15:46;;;;;;;22.60;7.40;;;;;;;12.56;71.47;97085.19;68295;1282;1015860;-62
2023/04/01 03:18:49;;;;;;;25.00;9.10;;;;;;;12.38;72.49;97083.39;68322;1282;1014610;-62
2023/04/01 03:21:52;;;;;;;23.30;7.80;;;;;;;12.41;72.69;97086.80;68282;1282;1016030;-62
2023/04/01 03:24:54;;;;;;;20.80;7.20;;;;;;;12.54;72.09;97088.71;68300;1282;1015672;-62
2023/04/01 03:27:59;;;;;;;21.00;7.20;;;;;;;12.63;71.60;97084.55;68307;1282;1016137;-62
2023/04/01 03:31:01;;;;;;;20.90;7.00;;;;;;;12.47;72.29;97085.46;68288;1282;1016300;-62
2023/04/01 03:34:04;;;;;;;20.30;7.00;;;;;;;12.52;72.13;97085.91;68315;1282;1016303;-62
2023/04/01 03:37:06;;;;;;;22.20;7.20;;;;;;;12.58;71.78;97090.96;68313;1282;1015636;-62
2023/04/01 03:40:08;;;;;;;20.80;7.30;;;;;;;12.63;71.65;97088.05;68300;1282;1015868;-62
2023/04/01 03:43:11;;;;;;;24.70;8.10;;;;;;;12.93;70.25;97085.45;68324;1282;1015616;-62
2023/04/01 03:46:14;;;;;;;24.10;8.30;;;;;;;13.14;69.35;97085.65;68301;1282;1015201;-62
2023/04/01 03:49:16;;;;;;;25.50;9.10;;;;;;;13.19;69.20;97086.02;68305;1282;1015047;-63
2023/04/01 03:52:19;;;;;;;24.30;9.30;;;;;;;13.29;68.75;97084.43;68299;1282;1015566;-62
2023/04/01 03:55:21;;;;;;;24.50;8.60;;;;;;;13.24;69.02;97090.28;68308;1282;1016317;-62
2023/04/01 03:58:24;;;;;;;24.80;7.70;;;;;;;13.28;69.21;97088.70;68295;1282;1015712;-62
2023/04/01 04:01:26;;;;;;;22.90;7.50;;;;;;;13.34;68.98;97092.70;68298;1282;1015304;-62
2023/04/01 04:04:28;;;;;;;23.20;7.90;;;;;;;13.41;68.66;97095.27;68317;1282;1015940;-62
2023/04/01 04:07:31;;;;;;;22.90;7.90;;;;;;;13.37;68.63;97100.98;68311;1282;1014379;-63
2023/04/01 04:10:34;;;;;;;23.30;7.60;;;;;;;13.33;68.64;97093.81;68307;1282;1015650;-62
2023/04/01 04:13:37;;;;;;;21.60;6.80;;;;;;;13.25;68.19;97097.27;68315;1282;1015386;-62
2023/04/01 04:16:39;;;;;;;25.20;7.90;;;;;;;13.21;68.16;97097.81;68313;1282;1015459;-62
2023/04/01 04:19:42;;;;;;;22.40;7.80;;;;;;;13.03;68.65;97100.21;68315;1282;1016273;-62
2023/04/01 04:22:44;;;;;;;21.20;7.30;;;;;;;12.99;69.22;97101.00;68309;1282;1015529;-62
2023/04/01 04:25:46;;;;;;;20.40;7.10;;;;;;;13.20;68.86;97099.98;68313;1282;1016053;-62
2023/04/01 04:28:49;;;;;;;23.90;6.50;;;;;;;13.18;68.71;97097.73;68304;1282;1015467;-62
2023/04/01 04:31:51;;;;;;;21.30;7.00;;;;;;;13.28;68.47;97101.69;68297;1282;1015447;-62
2023/04/01 04:34:54;;;;;;;21.60;7.90;;;;;;;13.33;68.35;97099.40;68307;1282;1016916;-62
2023/04/01 04:37:56;;;;;;;;;;;;;;;13.32;68.29;97102.17;68322;1282;1015218;-62
2023/04/01 04:40:59;;;;;;;24.50;6.90;;;;;;;13.12;69.10;97101.67;68295;1282;1015458;-62
2023/04/01 04:44:01;;;;;;;19.70;6.40;;;;;;;13.14;69.08;97098.48;68309;1282;1015825;-62
2023/04/01 04:47:03;;;;;;;23.10;6.00;;;;;;;13.20;68.83;97099.30;68311;1282;1015935;-62
2023/04/01 04:50:06;;;;;;;21.00;6.10;;;;;;;13.21;68.79;97098.71;68305;1282;1017115;-62
2023/04/01 04:53:08;;;;;;;22.00;7.00;;;;;;;13.10;69.59;97099.44;68297;1282;1015980;-62
2023/04/01 04:56:11;;;;;;;22.60;7.70;;;;;;;13.21;69.16;97102.20;68309;1282;1015283;-62
2023/04/01 04:59:13;;;;;;;21.60;7.40;;;;;;;13.09;69.73;97103.31;68289;1282;1015684;-62
2023/04/01 05:02:15;;;;;;;27.80;10.20;;;;;;;12.86;71.00;97108.61;68303;1282;1015352;-62
2023/04/01 05:05:18;;;;;;;24.80;9.30;;;;;;;12.81;71.51;97110.66;68312;1282;1015626;-62
2023/04/01 05:08:20;;;;;;;29.60;9.20;;;;;;;12.88;71.55;97108.75;68302;1282;1015666;-62
2023/04/01 05:11:22;;;;;;;28.20;8.90;;;;;;;12.95;71.17;97109.41;68308;1282;1016602;-62
2023/04/01 05:14:25;;;;;;;30.10;9.40;;;;;;;13.03;70.94;97107.67;68299;1282;1015326;-62
2023/04/01 05:17:27;;;;;;;26.50;9.00;;;;;;;13.21;70.13;97105.35;68319;1282;1015719;-62
2023/04/01 05:20:29;;;;;;;24.00;8.20;;;;;;;13.35;69.70;97107.86;68321;1282;1016151;-62
2023/04/01 05:23:32;;;;;;;22.60;7.30;;;;;;;13.37;69.50;97111.30;68316;1282;1016117;-62
2023/04/01 05:26:35;;;;;;;22.80;7.10;;;;;;;13.34;69.83;97112.25;68319;1282;1014771;-62
2023/04/01 05:29:37;;;;;;;;;;;;;;;13.39;69.75;97111.48;68313;1282;1015804;-62
2023/04/01 05:32:39;;;;;;;21.50;7.30;;;;;;;13.42;69.73;97112.95;68328;1282;1015772;-62
2023/04/01 05:35:42;;;;;;;24.00;8.20;;;;;;;13.54;69.60;97113.30;68320;1282;1016048;-62
2023/04/01 05:38:45;;;;;;;30.60;12.00;;;;;;;13.73;69.58;97111.78;68297;1282;1015946;-62
2023/04/01 05:41:47;;;;;;;26.30;9.50;;;;;;;13.94;69.79;97104.27;68305;1282;1015410;-62
2023/04/01 05:44:50;;;;;;;23.20;7.80;;;;;;;14.00;69.62;97106.60;68300;1282;1015475;-62
2023/04/01 05:47:52;;;;;;;23.10;7.90;;;;;;;14.16;69.03;97102.45;68313;1282;1015656;-62
2023/04/01 05:50:55;;;;;;;21.60;7.60;;;;;;;14.24;68.83;97101.20;68327;1282;1015326;-62
2023/04/01 05:53:57;;;;;;;22.90;8.50;;;;;;;14.40;69.09;97100.23;68305;1282;1015452;-62
2023/04/01 05:56:59;;;;;;;23.20;7.40;;;;;;;14.34;69.13;97105.19;68311;1282;1015717;-62
2023/04/01 06:00:02;;;;;;;23.30;7.90;;;;;;;14.42;68.68;97108.81;68322;1282;1015384;-62
2023/04/01 06:03:04;;;;;;;23.20;8.30;;;;;;;14.43;68.96;97106.60;68320;1259;1015270;-62
2023/04/01 06:06:08;;;;;;;24.60;8.50;;;;;;;14.64;67.46;97101.45;68321;1282;1015887;-62
2023/04/01 06:09:10;;;;;;;22.70;7.40;;;;;;;14.69;67.64;97106.52;68317;1282;1015696;-62
2023/04/01 06:12:13;;;;;;;21.80;7.10;;;;;;;14.61;67.36;97105.80;68318;1282;1015591;-62
2023/04/01 06:15:15;;;;;;;20.80;6.20;;;;;;;14.63;67.94;97104.67;68311;1282;1015776;-62
2023/04/01 06:18:18;;;;;;;23.50;7.80;;;;;;;14.71;67.54;97103.73;68319;1282;1015724;-62
2023/04/01 06:21:20;;;;;;;25.10;8.90;;;;;;;14.68;67.06;97109.14;68297;1282;1016061;-62
2023/04/01 06:24:22;;;;;;;21.60;6.70;;;;;;;14.89;66.50;97111.16;68328;1282;1015641;-62
2023/04/01 06:27:25;;;;;;;22.10;7.30;;;;;;;15.10;66.05;97105.88;68312;1282;1015962;-62
2023/04/01 06:30:27;;;;;;;23.30;6.80;;;;;;;15.25;66.10;97105.92;68306;1282;1016168;-62
2023/04/01 06:33:30;;;;;;;21.00;6.50;;;;;;;15.23;65.61;97100.44;68321;1282;1015839;-62
2023/04/01 06:36:32;;;;;;;;;;;;;;;15.23;65.31;97105.72;68316;1282;1015396;-62
2023/04/01 06:39:34;;;;;;;19.10;6.10;;;;;;;15.21;65.57;97108.64;68328;1282;1015830;-62
2023/04/01 06:42:37;;;;;;;23.50;7.20;;;;;;;15.05;66.09;97110.33;68313;1282;1015444;-62
2023/04/01 06:45:39;;;;;;;22.40;6.80;;;;;;;14.99;67.39;97108.34;68287;1282;1015263;-62
2023/04/01 06:48:42;;;;;;;19.30;6.70;;;;;;;15.06;67.41;97109.48;68322;1282;1016050;-62
2023/04/01 06:51:44;;;;;;;21.30;6.90;;;;;;;15.32;66.84;97106.58;68313;1282;1015196;-62
2023/04/01 06:54:46;;;;;;;25.00;9.30;;;;;;;15.53;66.51;97110.13;68320;1282;1015705;-62
2023/04/01 06:57:49;;;;;;;21.00;6.80;;;;;;;15.60;66.39;97107.60;68304;1282;1015026;-62
2023/04/01 07:00:51;;;;;;;21.90;6.20;;;;;;;15.73;66.13;97112.45;68309;1282;1015721;-62
2023/04/01 07:03:53;;;;;;;18.10;5.70;;;;;;;15.75;65.82;97113.77;68321;1282;1016038;-62
2023/04/01 07:06:56;;;;;;;21.70;5.00;;;;;;;15.61;65.57;97117.73;68316;1282;1015513;-62
2023/04/01 07:10:00;;;;;;;19.80;5.90;;;;;;;15.82;65.25;97116.02;68300;1282;1015447;-62
2023/04/01 07:13:03;;;;;;;16.80;5.00;;;;;;;15.94;66.10;97109.42;68318;1282;1016540;-62
2023/04/01 07:16:06;;;;;;;18.00;5.50;;;;;;;16.10;65.58;97110.10;68320;1282;1015365;-62
2023/04/01 07:19:09;;;;;;;17.10;5.20;;;;;;;16.18;65.55;97111.29;68322;1282;1016118;-62
2023/04/01 07:22:11;;;;;;;16.30;4.80;;;;;;;16.20;65.55;97110.90;68319;1282;1015787;-62
2023/04/01 07:25:14;;;;;;;19.10;5.10;;;;;;;16.16;64.89;97118.56;68335;1282;1015925;-62
2023/04/01 07:28:16;;;;;;;18.10;5.30;;;;;;;16.19;64.58;97117.71;68338;1282;1015726;-61
2023/04/01 07:31:19;;;;;;;18.10;4.90;;;;;;;15.95;63.93;97125.98;68317;1282;1015525;-62
2023/04/01 07:34:21;;;;;;;15.10;4.30;;;;;;;15.83;63.61;97132.06;68338;1282;1015682;-62
2023/04/01 07:37:23;;;;;;;20.10;5.40;;;;;;;15.90;64.54;97123.88;68310;1282;1015764;-62
2023/04/01 07:40:26;;;;;;;18.60;5.60;;;;;;;15.88;64.64;97125.19;68316;1282;1016911;-62
2023/04/01 07:43:28;;;;;;;18.50;4.90;;;;;;;16.09;65.94;97122.83;68307;1282;1016136;-62
2023/04/01 07:46:31;;;;;;;20.40;5.40;;;;;;;16.09;64.47;97117.21;68310;1282;1017125;-62
2023/04/01 07:49:33;;;;;;;;;;;;;;;16.07;64.82;97112.54;68315;1282;1015614;-62
2023/04/01 07:52:35;;;;;;;16.50;4.60;;;;;;;16.03;65.41;97119.22;68323;1282;1016134;-62
2023/04/01 07:55:38;;;;;;;17.50;4.80;;;;;;;16.10;65.14;97123.98;68326;1282;1016009;-62
2023/04/01 07:58:40;;;;;;;16.20;4.70;;;;;;;16.29;64.52;97127.00;68321;1282;1015416;-62
2023/04/01 08:01:42;;;;;;;18.60;5.70;;;;;;;16.36;64.35;97125.23;68322;1282;1015721;-62
2023/04/01 08:04:45;;;;;;;21.10;6.10;;;;;;;16.08;65.02;97132.52;68310;1282;1014811;-62
2023/04/01 08:07:48;;;;;;;18.30;5.20;;;;;;;15.92;64.37;97138.34;68312;1282;1016077;-62
2023/04/01 08:10:50;;;;;;;18.30;4.50;;;;;;;15.40;65.54;97149.05;68325;1282;1016154;-62
2023/04/01 08:13:52;;;;;;;14.90;4.10;;;;;;;15.20;67.98;97152.42;68318;1282;1016050;-62
2023/04/01 08:16:55;;;;;;;11.60;3.30;;;;;;;14.97;70.78;97154.98;68302;1282;1016020;-62
2023/04/01 08:19:57;;;;;;;15.50;3.80;;;;;;;14.70;72.45;97159.42;68325;1282;1015433;-62
2023/04/01 08:23:00;;;;;;;16.90;4.90;;;;;;;14.82;72.68;97157.41;68319;1282;1015927;-62
2023/04/01 08:26:03;;;;;;;20.70;6.30;;;;;;;14.99;73.33;97154.48;68320;1282;1015595;-62
2023/04/01 08:29:05;;;;;;;15.40;4.70;;;;;;;15.22;73.00;97160.25;68303;1282;1016081;-62
2023/04/01 08:32:07;;;;;;;16.70;4.80;;;;;;;15.23;71.69;97159.13;68318;1282;1015282;-62
2023/04/01 08:35:10;;;;;;;18.60;5.80;;;;;;;15.06;72.17;97153.70;68331;1282;1015875;-62
2023/04/01 08:38:13;;;;;;;18.90;5.00;;;;;;;15.15;72.36;97149.95;68325;1282;1016513;-62
2023/04/01 08:41:15;;;;;;;19.60;6.30;;;;;;;15.16;72.16;97154.05;68332;1282;1015461;-62
2023/04/01 08:44:17;;;;;;;18.30;5.20;;;;;;;15.06;73.43;97157.39;68327;1282;1015641;-62
2023/04/01 08:47:20;;;;;;;21.00;6.00;;;;;;;14.99;72.64;97156.53;68314;1282;1016041;-62
2023/04/01 08:50:22;;;;;;;17.80;4.90;;;;;;;14.95;72.70;97154.67;68320;1282;1015955;-62
2023/04/01 08:53:24;;;;;;;18.30;5.30;;;;;;;15.05;71.85;97151.35;68334;1282;1015896;-62
2023/04/01 08:56:27;;;;;;;18.70;5.50;;;;;;;15.18;71.75;97152.02;68330;1282;1015214;-62
2023/04/01 08:59:30;;;;;;;17.70;5.30;;;;;;;15.35;71.55;97148.38;68321;1282;1015856;-62
2023/04/01 09:02:32;;;;;;;14.70;4.60;;;;;;;15.52;71.49;97144.95;68318;1282;1016084;-62
2023/04/01 09:05:34;;;;;;;12.20;3.90;;;;;;;15.61;69.90;97156.67;68305;1282;1015822;-62
2023/04/01 09:08:37;;;;;;;13.70;4.40;;;;;;;15.57;70.11;97150.02;68333;1282;1014882;-62
2023/04/01 09:11:39;;;;;;;15.10;4.70;;;;;;;15.77;70.31;97152.30;68341;1281;1016022;-62
2023/04/01 09:14:42;;;;;;;16.20;4.70;;;;;;;16.00;69.41;97147.32;68320;1282;1015362;-62
2023/04/01 09:17:44;;;;;;;14.30;4.20;;;;;;;16.28;68.34;97141.39;68304;1282;1016491;-62
2023/04/01 09:20:46;;;;;;;12.20;3.40;;;;;;;16.34;66.78;97139.66;68315;1282;1016075;-62
2023/04/01 09:23:49;;;;;;;14.10;3.90;;;;;;;16.17;65.42;97149.49;68315;1282;1015700;-62
2023/04/01 09:26:51;;;;;;;8.50;3.00;;;;;;;16.18;65.97;97153.13;68298;1282;1015911;-62
2023/04/01 09:29:54;;;;;;;9.40;2.90;;;;;;;16.20;65.18;97159.80;68327;1282;1015606;-62
2023/04/01 09:32:56;;;;;;;9.60;3.10;;;;;;;16.13;66.26;97151.42;68312;1282;1016045;-62
2023/04/01 09:35:58;;;;;;;11.50;3.40;;;;;;;16.43;64.96;97147.02;68301;1282;1016156;-62
2023/04/01 09:39:01;;;;;;;13.20;3.40;;;;;;;16.87;64.04;97144.70;68325;1282;1016049;-62
2023/04/01 09:42:03;;;;;;;12.10;3.90;;;;;;;17.30;62.66;97148.11;68310;1282;1015837;-62
2023/04/01 09:45:05;;;;;;;10.10;3.30;;;;;;;17.35;62.02;97141.42;68313;1282;1014941;-62
2023/04/01 09:48:08;;;;;;;12.30;2.80;;;;;;;17.56;61.56;97156.15;68318;1282;1015571;-62
2023/04/01 09:51:10;;;;;;;11.90;3.10;;;;;;;17.85;62.27;97150.50;68314;1282;1015345;-62
2023/04/01 09:54:13;;;;;;;11.10;3.20;;;;;;;18.11;59.09;97155.73;68328;1282;1015333;-62
2023/04/01 09:57:15;;;;;;;10.10;3.10;;;;;;;17.96;58.15;97155.76;68325;1282;1015657;-62
2023/04/01 10:00:17;;;;;;;10.90;3.10;;;;;;;17.84;59.10;97154.11;68319;1282;1015371;-62
2023/04/01 10:03:20;;;;;;;10.50;3.10;;;;;;;17.72;59.66;97152.00;68307;1282;1016036;-62
2023/04/01 10:06:22;;;;;;;9.80;2.90;;;;;;;17.68;60.73;97145.91;68308;1282;1015712;-62
2023/04/01 10:09:24;;;;;;;6.80;2.30;;;;;;;17.58;58.11;97149.86;68333;1282;1015928;-62
2023/04/01 10:12:27;;;;;;;9.40;2.80;;;;;;;17.55;58.59;97148.98;68317;1282;1016208;-62
2023/04/01 10:15:29;;;;;;;9.30;2.90;;;;;;;17.48;58.20;97155.17;68324;1282;1015631;-62
2023/04/01 10:18:32;;;;;;;;;;;;;;;17.32;59.99;97157.67;68319;1282;1015273;-62
2023/04/01 10:21:34;;;;;;;7.90;2.50;;;;;;;17.26;58.28;97156.82;68318;1282;1015569;-62
2023/04/01 10:24:36;;;;;;;8.60;2.70;;;;;;;17.01;58.06;97158.88;68309;1282;1016649;-62
2023/04/01 10:27:39;;;;;;;;;;;;;;;17.02;58.31;97155.27;68335;1282;1015843;-62
2023/04/01 10:30:41;;;;;;;5.90;2.00;;;;;;;17.26;58.83;97152.91;68311;1282;1016058;-62
2023/04/01 10:33:44;;;;;;;5.30;1.70;;;;;;;17.25;57.22;97146.59;68325;1282;1015445;-62
2023/04/01 10:36:47;;;;;;;;;;;;;;;17.25;56.13;97152.65;68332;1282;1015628;-62
2023/04/01 10:39:49;;;;;;;6.30;2.10;;;;;;;17.26;56.52;97142.40;68307;1282;1015669;-62
2023/04/01 10:42:52;;;;;;;7.60;2.20;;;;;;;17.34;56.58;97154.73;68320;1282;1015469;-62
2023/04/01 10:45:54;;;;;;;5.40;2.40;;;;;;;17.23;57.32;97139.45;68310;1282;1015777;-62
2023/04/01 10:48:56;;;;;;;7.90;2.30;;;;;;;17.08;57.43;97137.02;68317;1282;1016224;-62
2023/04/01 10:51:59;;;;;;;11.90;3.00;;;;;;;16.90;57.63;97148.27;68325;1282;1015561;-62
2023/04/01 10:55:01;;;;;;;11.30;3.20;;;;;;;16.90;57.40;97146.84;68320;1282;1016110;-62
2023/04/01 10:58:04;;;;;;;11.00;3.40;;;;;;;16.93;58.16;97156.55;68326;1282;1015609;-63
2023/04/01 11:01:06;;;;;;;;;;;;;;;16.92;57.58;97162.73;68321;1282;1015517;-62
2023/04/01 11:04:08;;;;;;;11.30;3.20;;;;;;;16.49;59.45;97162.54;68325;1282;1016599;-62
2023/04/01 11:07:11;;;;;;;8.90;3.00;;;;;;;15.91;62.22;97169.35;68314;1282;1016571;-62
2023/04/01 11:10:13;;;;;;;12.30;3.60;;;;;;;15.83;62.46;97161.40;68333;1282;1015832;-62
2023/04/01 11:13:16;;;;;;;7.80;2.90;;;;;;;15.96;63.15;97156.46;68326;1282;1015257;-62
2023/04/01 11:16:19;;;;;;;10.20;3.30;;;;;;;16.07;62.85;97153.58;68310;1282;1016933;-62
2023/04/01 11:19:21;;;;;;;11.90;3.30;;;;;;;16.17;63.20;97151.98;68316;1282;1015331;-62
2023/04/01 11:22:24;;;;;;;11.30;2.90;;;;;;;16.34;63.17;97155.23;68300;1282;1015574;-61
2023/04/01 11:25:26;;;;;;;10.40;3.20;;;;;;;16.62;61.52;97152.82;68311;1282;1016267;-62
2023/04/01 11:28:29;;;;;;;10.60;2.50;;;;;;;17.06;60.46;97151.25;68323;1282;1014948;-62
2023/04/01 11:31:32;;;;;;;8.30;2.20;;;;;;;17.16;59.61;97149.77;68308;1282;1015936;-63
2023/04/01 11:34:35;;;;;;;7.50;2.40;;;;;;;17.23;59.84;97152.98;68316;1282;1015632;-62
2023/04/01 11:37:37;;;;;;;7.10;2.40;;;;;;;17.47;60.10;97153.45;68314;1282;1016168;-62
2023/04/01 11:40:40;;;;;;;8.50;2.70;;;;;;;17.72;59.76;97151.85;68324;1259;1015974;-62
2023/04/01 11:43:42;;;;;;;8.70;2.60;;;;;;;17.96;59.11;97141.06;68318;1282;1015520;-62
2023/04/01 11:46:45;;;;;;;10.10;2.50;;;;;;;17.82;57.92;97147.23;68316;1282;1014600;-62
2023/04/01 11:49:47;;;;;;;8.50;2.40;;;;;;;17.83;59.19;97141.17;68314;1282;1015568;-62
2023/04/01 11:52:50;;;;;;;;;;;;;;;18.43;58.53;97142.28;68316;1282;1016091;-62
2023/04/01 11:55:52;;;;;;;7.60;2.10;;;;;;;18.81;54.89;97148.05;68319;1282;1015660;-62
2023/04/01 11:58:54;;;;;;;4.00;1.70;;;;;;;18.50;54.85;97146.63;68329;1282;1016096;-62
2023/04/01 12:01:57;;;;;;;9.60;2.90;;;;;;;18.18;54.45;97154.23;68332;1282;1015724;-62
2023/04/01 12:04:59;;;;;;;10.80;2.90;;;;;;;18.52;56.22;97143.98;68319;1282;1015500;-62
2023/04/01 12:08:02;;;;;;;8.30;2.60;;;;;;;18.74;55.48;97142.49;68306;1282;1016028;-62
2023/04/01 12:11:04;;;;;;;;;;;;;;;18.79;54.47;97141.25;68334;1282;1015637;-62
2023/04/01 12:14:06;;;;;;;7.00;2.50;;;;;;;18.59;54.69;97140.77;68321;1282;1015957;-62
2023/04/01 12:17:09;;;;;;;11.00;3.30;;;;;;;18.65;54.69;97146.36;68316;1259;1016129;-62
2023/04/01 12:20:11;;;;;;;;;;;;;;;18.87;53.64;97141.27;68324;1282;1015380;-62
2023/04/01 12:23:14;;;;;;;8.60;2.50;;;;;;;18.78;53.71;97134.72;68310;1282;1016016;-62
2023/04/01 12:26:17;;;;;;;6.80;2.80;;;;;;;18.53;54.90;97134.66;68305;1282;1014961;-62
2023/04/01 12:29:19;;;;;;;7.30;2.30;;;;;;;18.37;54.23;97143.80;68327;1259;1015453;-62
2023/04/01 12:32:22;;;;;;;7.40;2.50;;;;;;;18.24;55.77;97133.38;68313;1282;1015579;-63
2023/04/01 12:35:24;;;;;;;4.80;2.20;;;;;;;18.45;55.56;97136.55;68335;1282;1016214;-62
2023/04/01 12:38:27;;;;;;;;;;;;;;;18.20;55.79;97138.98;68317;1282;1016000;-62
2023/04/01 12:41:29;;;;;;;;;;;;;;;18.39;56.83;97137.01;68322;1282;1016270;-62
2023/04/01 12:44:34;;;;;;;6.70;2.10;;;;;;;18.16;56.19;97145.61;68320;1282;1015245;-62
2023/04/01 12:47:36;;;;;;;6.00;2.10;;;;;;;18.17;57.56;97136.86;68321;1282;1016151;-62
2023/04/01 12:50:38;;;;;;;6.20;2.40;;;;;;;18.48;57.75;97143.29;68316;1282;1016620;-62
2023/04/01 12:53:41;;;;;;;9.10;2.90;;;;;;;18.20;58.78;97148.88;68310;1282;1016343;-62
2023/04/01 12:56:45;;;;;;;9.80;3.00;;;;;;;17.92;58.43;97158.83;68308;1282;1015935;-62
2023/04/01 12:59:51;;;;;;;8.20;2.30;;;;;;;17.29;60.43;97162.63;68333;1282;1015432;-62
2023/04/01 13:02:53;;;;;;;9.30;3.00;;;;;;;16.90;62.39;97162.08;68322;1282;1016035;-62
2023/04/01 13:05:55;;;;;;;6.50;2.30;;;;;;;16.66;64.42;97172.96;68311;1282;1016047;-62
2023/04/01 13:08:58;;;;;;;12.30;3.40;;;;;;;16.55;65.65;97170.77;68323;1282;1016050;-62
2023/04/01 13:12:00;;;;;;;13.40;3.60;;;;;;;16.84;65.92;97165.65;68325;1282;1015909;-62
2023/04/01 13:15:02;;;;;;;11.60;2.90;;;;;;;17.19;64.92;97169.74;68313;1282;1015373;-62
2023/04/01 13:18:05;;;;;;;;;;;;;;;17.38;62.62;97174.15;68300;1282;1016143;-62
2023/04/01 13:21:08;;;;;;;13.60;3.40;;;;;;;17.16;62.87;97177.64;65773;1282;5387780;-62
2023/04/01 13:24:10;;;;;;;10.90;3.00;;;;;;;17.52;64.22;97180.59;68315;1282;1015555;-62
2023/04/01 13:27:13;;;;;;;11.90;3.50;;;;;;;18.04;61.29;97176.77;68322;1282;1015872;-62
2023/04/01 13:30:15;;;;;;;6.40;1.90;;;;;;;17.89;61.49;97169.30;68333;1282;1015467;-62
2023/04/01 13:33:17;;;;;;;;;;;;;;;17.87;61.21;97173.60;68316;1282;1015807;-62
2023/04/01 13:36:20;;;;;;;10.80;3.10;;;;;;;17.65;61.76;97180.86;68319;1282;1015645;-63
2023/04/01 13:39:22;;;;;;;13.10;3.40;;;;;;;17.83;61.81;97172.79;68323;1282;1015927;-62
2023/04/01 13:42:26;;;;;;;7.50;2.30;;;;;;;18.40;60.63;97166.52;68312;1282;1016185;-62
2023/04/01 13:45:30;;;;;;;13.80;3.60;;;;;;;18.45;58.38;97169.05;68312;1282;1015270;-62
2023/04/01 13:48:32;;;;;;;11.20;3.30;;;;;;;17.97;60.64;97173.60;68325;1282;1015842;-62
2023/04/01 13:51:34;;;;;;;15.60;4.30;;;;;;;17.57;60.95;97161.73;68310;1282;1016317;-62
2023/04/01 13:54:37;;;;;;;14.80;4.20;;;;;;;17.39;61.47;97174.34;68316;1282;1015305;-62